Time;durP1;ratioP1;P1;durP2;ratioP2;P2;SDS_P1;SDS_P2;PMS_P1;PMS_P2;Temp;Humidity;BMP_temperature;BMP_pressure;BME280_temperature;BME280_humidity;BME280_pressure;Samples;Min_cycle;Max_cycle;Signal;HPM_P1;HPM_P2
2021/07/09 00:02:02;;;;;;;;;4.25;4.00;;;;;26.80;41.83;102196.53;5080600;28;45417;-71
2021/07/09 00:04:27;;;;;;;;;6.75;5.50;;;;;26.68;41.79;102176.59;5080489;28;47671;-71
2021/07/09 00:06:55;;;;;;;;;6.00;4.00;;;;;27.01;41.93;102231.56;5080329;28;45469;-71
2021/07/09 00:09:21;;;;;;;;;6.50;6.00;;;;;26.95;41.59;102222.44;5080704;27;45349;-71
2021/07/09 00:11:49;;;;;;;;;6.25;4.50;;;;;26.77;41.74;102194.22;5079290;28;45544;-71
2021/07/09 00:14:16;;;;;;;;;8.25;6.50;;;;;26.99;41.79;102230.91;5079149;28;48227;-71
2021/07/09 00:16:46;;;;;;;;;7.00;7.00;;;;;26.99;41.98;102225.56;5079315;28;45287;-71
2021/07/09 00:19:12;;;;;;;;;6.00;6.00;;;;;26.92;42.04;102209.44;5079311;28;45184;-71
2021/07/09 00:21:38;;;;;;;;;4.00;4.00;;;;;26.70;41.63;102172.75;5080133;28;45453;-71
2021/07/09 00:24:05;;;;;;;;;4.75;4.75;;;;;26.77;41.92;102201.41;5078955;28;47202;-71
2021/07/09 00:26:32;;;;;;;;;3.75;3.75;;;;;26.81;41.90;102192.00;5080451;28;45358;-71
2021/07/09 00:28:58;;;;;;;;;4.75;4.75;;;;;26.98;41.84;102223.91;5080674;28;45272;-71
2021/07/09 00:31:25;;;;;;;;;4.75;4.00;;;;;26.40;41.95;102133.44;5064958;28;45509;-71
2021/07/09 00:33:50;;;;;;;;;5.25;3.50;;;;;26.95;41.59;102211.75;5075837;28;47566;-71
2021/07/09 00:36:16;;;;;;;;;6.50;5.50;;;;;26.87;41.69;102193.97;5059093;28;45607;-71
2021/07/09 00:38:42;;;;;;;;;4.25;4.25;;;;;26.90;41.65;102198.94;5070609;28;45260;-71
2021/07/09 00:41:08;;;;;;;;;4.00;4.00;;;;;26.76;42.05;102170.38;5059895;28;45506;-71
2021/07/09 00:43:33;;;;;;;;;5.00;5.00;;;;;26.85;41.67;102182.66;5067312;28;46771;-70
2021/07/09 00:45:59;;;;;;;;;4.00;4.00;;;;;26.81;42.04;102178.66;5080009;28;45489;-71
2021/07/09 00:48:28;;;;;;;;;4.25;4.25;;;;;26.93;41.68;102192.41;5078851;28;45256;-71
2021/07/09 00:50:55;;;;;;;;;6.75;5.00;;;;;26.73;41.77;102169.72;5080138;28;45426;-71
2021/07/09 00:53:21;;;;;;;;;4.75;4.75;;;;;26.87;41.84;102191.31;5082227;28;47203;-71
2021/07/09 00:55:47;;;;;;;;;4.25;4.25;;;;;26.85;41.65;102185.31;5083611;28;45218;-70
2021/07/09 00:58:12;;;;;;;;;4.75;4.75;;;;;26.89;41.89;102199.13;5083580;28;45228;-71
2021/07/09 01:00:37;;;;;;;;;6.00;6.00;;;;;26.41;42.10;102121.72;5082270;28;45269;-71
2021/07/09 01:03:04;;;;;;;;;7.50;5.75;;;;;26.94;41.79;102200.25;5083699;28;46361;-71
2021/07/09 01:05:30;;;;;;;;;5.25;4.25;;;;;26.64;41.98;102149.47;5081678;28;45357;-70
2021/07/09 01:07:55;;;;;;;;;4.25;4.25;;;;;26.61;41.97;102157.81;5083070;28;45366;-71
2021/07/09 01:10:21;;;;;;;;;4.25;4.25;;;;;26.93;42.03;102192.41;5083388;28;45670;-71
2021/07/09 01:12:47;;;;;;;;;5.50;3.75;;;;;26.89;42.10;102194.63;5083812;28;45973;-71
2021/07/09 01:15:15;;;;;;;;;5.00;5.00;;;;;26.79;41.64;102176.19;5082009;28;45498;-71
2021/07/09 01:17:41;;;;;;;;;5.25;4.00;;;;;26.93;41.78;102200.44;5082494;28;45260;-71
2021/07/09 01:20:10;;;;;;;;;3.25;3.00;;;;;26.80;41.97;102177.03;5083183;28;45476;-71
2021/07/09 01:22:38;;;;;;;;;5.00;5.00;;;;;26.94;42.04;102194.91;5082785;28;45459;-70
2021/07/09 01:25:09;;;;;;;;;3.00;3.00;;;;;26.72;41.50;102161.91;5083022;28;45409;-70
2021/07/09 01:27:37;;;;;;;;;5.00;5.00;;;;;26.93;41.86;102201.25;5083402;28;45177;-70
2021/07/09 01:30:06;;;;;;;;;5.00;5.00;;;;;26.94;41.96;102212.75;5077458;28;45491;-71
2021/07/09 01:32:32;;;;;;;;;5.00;5.00;;;;;26.79;41.97;102178.84;5062730;28;45596;-71
2021/07/09 01:34:57;;;;;;;;;5.00;4.25;;;;;26.75;41.91;102169.56;5062597;28;45219;-71
2021/07/09 01:37:23;;;;;;;;;4.75;4.75;;;;;26.58;41.94;102147.50;5072880;28;45260;-71
2021/07/09 01:39:48;;;;;;;;;3.75;3.50;;;;;26.85;41.72;102186.13;5063759;27;45236;-71
2021/07/09 01:42:14;;;;;;;;;5.00;5.00;;;;;26.90;41.91;102206.97;5061514;28;48175;-71
2021/07/09 01:44:42;;;;;;;;;5.00;5.00;;;;;26.77;42.03;102172.03;5080498;28;45391;-70
2021/07/09 01:47:07;;;;;;;;;4.00;4.00;;;;;26.73;41.93;102168.88;5082974;28;45431;-71
2021/07/09 01:49:54;;;;;;;;;5.50;5.00;;;;;26.90;41.83;102203.47;5082698;28;45526;-70
2021/07/09 01:52:21;;;;;;;;;5.50;4.75;;;;;26.80;41.80;102177.84;5081070;28;48215;-70
2021/07/09 01:54:47;;;;;;;;;5.00;5.00;;;;;26.84;41.62;102181.81;5082995;28;45176;-70
2021/07/09 01:57:13;;;;;;;;;3.50;3.50;;;;;26.82;42.06;102181.16;5082538;28;45239;-70
2021/07/09 01:59:42;;;;;;;;;4.00;4.00;;;;;26.66;41.93;102155.44;5082448;28;45309;-70
2021/07/09 02:02:08;;;;;;;;;3.50;3.25;;;;;26.66;41.99;102154.59;5082464;28;46504;-71
2021/07/09 02:04:42;;;;;;;;;3.50;3.50;;;;;26.81;41.90;102176.81;5082827;28;45402;-71
2021/07/09 02:07:08;;;;;;;;;4.75;4.75;;;;;26.77;41.69;102167.53;5082098;28;45436;-71
2021/07/09 02:09:33;;;;;;;;;4.50;4.50;;;;;26.59;41.87;102136.66;5082722;28;45401;-70
2021/07/09 02:12:00;;;;;;;;;4.75;4.00;;;;;26.55;41.36;102140.69;5064182;28;45510;-70
2021/07/09 02:14:25;;;;;;;;;5.00;5.00;;;;;26.74;42.04;102158.03;5081068;28;45325;-71
2021/07/09 02:16:51;;;;;;;;;3.00;3.00;;;;;26.87;42.41;102183.28;5082715;28;45217;-71
2021/07/09 02:19:16;;;;;;;;;4.25;4.25;;;;;26.85;41.61;102177.31;5082721;28;45587;-70
2021/07/09 02:21:47;;;;;;;;;6.50;5.75;;;;;26.74;42.08;102162.53;5080940;28;47041;-71
2021/07/09 02:24:14;;;;;;;;;5.50;5.25;;;;;26.51;41.49;102124.22;5082486;28;45359;-71
2021/07/09 02:26:40;;;;;;;;;4.00;4.00;;;;;26.57;41.74;102135.19;5082479;27;45401;-71
2021/07/09 02:29:05;;;;;;;;;4.75;4.75;;;;;26.79;41.96;102159.31;5080031;28;45515;-71
2021/07/09 02:31:31;;;;;;;;;5.00;5.00;;;;;26.79;42.08;102162.84;5065964;27;45625;-71
2021/07/09 02:33:56;;;;;;;;;4.75;4.75;;;;;26.62;42.13;102130.13;5060543;28;45170;-71
2021/07/09 02:36:21;;;;;;;;;3.00;3.00;;;;;26.57;42.03;102119.16;5061670;28;45319;-71
2021/07/09 02:38:47;;;;;;;;;4.00;4.00;;;;;26.87;41.64;102171.78;5073967;27;45617;-71
2021/07/09 02:41:12;;;;;;;;;4.25;4.00;;;;;26.54;41.64;102108.84;5060411;28;47244;-71
2021/07/09 02:43:38;;;;;;;;;4.25;4.25;;;;;26.77;41.91;102140.84;5071220;28;45176;-71
2021/07/09 02:46:03;;;;;;;;;4.25;4.25;;;;;26.64;41.75;102120.09;5082133;28;45302;-71
2021/07/09 02:48:28;;;;;;;;;3.75;3.75;;;;;26.72;42.06;102138.72;5080856;28;45559;-71
2021/07/09 02:50:54;;;;;;;;;5.50;3.50;;;;;26.72;41.62;102143.22;5080471;28;46895;-71
2021/07/09 02:53:19;;;;;;;;;4.50;4.50;;;;;26.34;41.57;102088.78;5097675;27;45199;-71
2021/07/09 02:55:45;;;;;;;;;5.00;5.00;;;;;26.76;41.81;102143.66;5082009;28;45165;-71
2021/07/09 02:58:11;;;;;;;;;5.25;5.25;;;;;26.75;41.76;102142.84;5080676;28;45248;-71
2021/07/09 03:00:36;;;;;;;;;4.50;4.00;;;;;26.47;41.72;102096.22;5060929;28;45486;-71
2021/07/09 03:03:02;;;;;;;;;4.00;4.00;;;;;26.56;41.89;102106.81;5061294;28;45378;-71
2021/07/09 03:05:27;;;;;;;;;4.00;4.00;;;;;26.62;41.84;102108.78;5061196;28;45298;-71
2021/07/09 03:07:53;;;;;;;;;4.25;3.75;;;;;26.84;42.05;102141.75;5060994;28;45442;-71
2021/07/09 03:10:18;;;;;;;;;4.75;4.75;;;;;26.82;42.06;102138.44;5061220;28;46454;-71
2021/07/09 03:12:43;;;;;;;;;4.75;4.75;;;;;26.80;41.73;102145.81;5061349;28;45335;-71
2021/07/09 03:15:11;;;;;;;;;3.00;3.00;;;;;26.73;41.65;102127.00;5060979;28;45399;-71
2021/07/09 03:17:37;;;;;;;;;3.00;3.00;;;;;26.42;42.30;102079.88;5061705;28;45245;-71
2021/07/09 03:20:05;;;;;;;;;5.00;4.00;;;;;26.60;41.76;102108.94;5060838;28;45436;-71
2021/07/09 03:22:30;;;;;;;;;4.25;3.00;;;;;26.63;42.04;102115.75;5059816;28;45369;-71
2021/07/09 03:24:56;;;;;;;;;3.00;3.00;;;;;26.81;41.89;102144.78;5061006;28;45323;-71
2021/07/09 03:27:21;;;;;;;;;4.25;4.00;;;;;26.63;42.14;102113.09;5059883;28;45370;-71
2021/07/09 03:29:47;;;;;;;;;3.00;3.00;;;;;26.67;41.74;102127.75;5061837;28;47266;-71
2021/07/09 03:32:12;;;;;;;;;5.00;5.00;;;;;26.52;41.91;102109.84;5059724;28;45380;-71
2021/07/09 03:34:37;;;;;;;;;4.00;4.00;;;;;26.61;41.98;102121.28;5059423;28;45430;-71
2021/07/09 03:37:03;;;;;;;;;6.00;6.00;;;;;26.72;41.93;102127.19;5067600;28;45379;-71
2021/07/09 03:39:28;;;;;;;;;4.25;4.25;;;;;26.70;42.24;102132.69;5064749;27;46377;-71
2021/07/09 03:41:54;;;;;;;;;7.50;5.00;;;;;26.70;41.70;102122.03;5059626;28;45925;-71
2021/07/09 03:44:19;;;;;;;;;3.50;3.50;;;;;26.66;41.53;102118.06;5076097;28;45285;-71
2021/07/09 03:46:45;;;;;;;;;4.00;4.00;;;;;26.43;41.70;102084.22;5081308;28;45356;-71
2021/07/09 03:49:10;;;;;;;;;7.50;4.25;;;;;26.73;42.09;102132.34;5080940;28;46281;-71
2021/07/09 03:51:37;;;;;;;;;6.25;6.25;;;;;26.60;41.88;102111.59;5079701;28;45259;-71
2021/07/09 03:54:04;;;;;;;;;6.00;4.00;;;;;26.80;42.24;102139.63;5080955;28;45534;-71
2021/07/09 03:56:29;;;;;;;;;4.00;4.00;;;;;26.44;42.25;102085.88;5081270;28;46508;-71
2021/07/09 03:58:57;;;;;;;;;4.50;3.75;;;;;26.60;42.29;102105.44;5064576;28;46272;-71
2021/07/09 04:01:22;;;;;;;;;4.50;4.50;;;;;26.68;41.87;102123.22;5060772;28;45379;-71
2021/07/09 04:03:48;;;;;;;;;4.00;4.00;;;;;26.73;41.93;102129.66;5060502;28;45393;-71
2021/07/09 04:06:13;;;;;;;;;5.50;4.50;;;;;26.73;42.01;102144.84;5059828;28;45334;-71
2021/07/09 04:08:38;;;;;;;;;5.00;4.25;;;;;26.66;41.80;102133.25;5060090;28;45478;-71
2021/07/09 04:11:04;;;;;;;;;3.25;3.25;;;;;26.72;41.59;102148.56;5060463;28;45322;-71
2021/07/09 04:13:29;;;;;;;;;5.25;4.75;;;;;26.58;41.55;102128.81;5060440;28;45252;-71
2021/07/09 04:15:55;;;;;;;;;5.00;3.75;;;;;26.68;41.66;102145.41;5060506;28;45433;-71
2021/07/09 04:18:21;;;;;;;;;6.00;6.00;;;;;26.77;41.81;102156.84;5075969;28;47210;-71
2021/07/09 04:20:47;;;;;;;;;3.75;3.75;;;;;26.62;41.94;102132.78;5060451;28;45287;-71
2021/07/09 04:23:12;;;;;;;;;5.50;5.00;;;;;26.77;41.95;102162.19;5075576;28;45536;-71
2021/07/09 04:25:38;;;;;;;;;4.00;4.00;;;;;26.72;41.77;102148.56;5059137;28;45504;-71
2021/07/09 04:28:03;;;;;;;;;5.00;4.75;;;;;26.63;41.71;102135.28;5059986;28;46049;-71
2021/07/09 04:30:29;;;;;;;;;5.00;4.75;;;;;26.45;41.51;102110.75;5063638;28;45208;-71
2021/07/09 04:32:54;;;;;;;;;4.25;4.25;;;;;26.66;41.88;102151.94;5058801;28;45459;-71
2021/07/09 04:35:20;;;;;;;;;5.25;5.00;;;;;26.58;41.85;102140.31;5060154;28;45427;-70
2021/07/09 04:37:47;;;;;;;;;5.00;4.75;;;;;26.67;41.85;102162.44;5068189;28;47222;-71
2021/07/09 04:40:15;;;;;;;;;3.75;3.75;;;;;26.55;41.75;102146.00;5060022;28;45401;-71
2021/07/09 04:42:41;;;;;;;;;5.00;5.00;;;;;26.77;42.01;102170.19;5060021;28;45477;-71
2021/07/09 04:45:07;;;;;;;;;5.25;4.00;;;;;26.65;42.15;102159.09;5078759;28;45530;-71
2021/07/09 04:47:33;;;;;;;;;3.75;3.00;;;;;26.32;42.15;102100.66;5092331;27;47305;-71
2021/07/09 04:49:58;;;;;;;;;4.50;3.25;;;;;26.57;42.08;102141.31;5059970;28;45256;-70
2021/07/09 04:52:23;;;;;;;;;3.75;3.75;;;;;26.49;42.05;102136.88;5059740;28;45304;-71
2021/07/09 04:54:49;;;;;;;;;4.00;4.00;;;;;26.76;41.67;102184.53;5058573;28;45597;-71
2021/07/09 04:57:14;;;;;;;;;4.00;4.00;;;;;26.68;41.86;102172.09;5075162;28;47053;-71
2021/07/09 04:59:40;;;;;;;;;6.25;5.25;;;;;26.57;41.89;102157.34;5059751;28;45423;-71
2021/07/09 05:02:05;;;;;;;;;4.00;4.00;;;;;26.75;41.82;102188.25;5059681;28;45206;-71
2021/07/09 05:04:31;;;;;;;;;4.00;4.00;;;;;26.70;42.01;102185.28;5058131;28;45457;-70
2021/07/09 05:06:58;;;;;;;;;6.00;5.00;;;;;26.37;41.62;102127.63;5058922;28;45261;-71
2021/07/09 05:09:23;;;;;;;;;3.25;3.00;;;;;26.68;41.71;102185.44;5058551;28;45492;-71
2021/07/09 05:11:49;;;;;;;;;6.00;4.00;;;;;26.63;42.35;102172.66;5075169;28;45329;-71
2021/07/09 05:14:14;;;;;;;;;6.00;4.00;;;;;26.65;42.20;102180.47;5058273;28;45526;-70
2021/07/09 05:16:39;;;;;;;;;4.50;4.50;;;;;26.40;42.37;102138.78;5059500;28;46223;-71
2021/07/09 05:19:05;;;;;;;;;3.00;3.00;;;;;26.75;42.07;102196.25;5059768;28;45236;-70
2021/07/09 05:21:31;;;;;;;;;5.00;5.00;;;;;26.47;41.78;102146.06;5059581;28;45242;-70
2021/07/09 05:23:59;;;;;;;;;4.00;4.00;;;;;26.67;41.73;102175.78;5059549;28;45234;-71
2021/07/09 05:26:25;;;;;;;;;5.50;4.25;;;;;26.40;41.99;102136.09;5058151;28;46994;-71
2021/07/09 05:28:51;;;;;;;;;5.00;5.00;;;;;26.65;42.35;102177.78;5058127;28;45346;-71
2021/07/09 05:31:16;;;;;;;;;2.25;2.25;;;;;26.49;41.92;102163.56;5075145;28;45480;-70
2021/07/09 05:33:42;;;;;;;;;4.75;3.50;;;;;26.52;41.84;102159.72;5059399;28;45531;-71
2021/07/09 05:36:08;;;;;;;;;3.00;3.00;;;;;26.76;41.85;102208.56;5058033;28;47392;-70
2021/07/09 05:38:33;;;;;;;;;5.25;5.00;;;;;26.45;41.50;102158.78;5076031;28;45395;-71
2021/07/09 05:40:59;;;;;;;;;4.75;4.75;;;;;26.77;42.28;102204.91;5063115;28;45318;-71
2021/07/09 05:43:24;;;;;;;;;4.00;4.00;;;;;26.66;41.63;102189.31;5070237;28;45401;-71
2021/07/09 05:45:49;;;;;;;;;5.75;3.75;;;;;26.70;41.91;102204.78;5081534;28;46381;-70
2021/07/09 05:48:15;;;;;;;;;5.25;3.00;;;;;26.39;41.87;102154.94;5082678;28;45313;-70
2021/07/09 05:50:41;;;;;;;;;4.75;4.75;;;;;26.62;41.81;102194.19;5083320;28;45350;-71
2021/07/09 05:53:07;;;;;;;;;4.25;4.25;;;;;26.72;41.70;102212.63;5081464;28;45365;-71
2021/07/09 05:55:33;;;;;;;;;4.00;4.00;;;;;26.29;42.01;102150.69;5098512;27;46866;-71
2021/07/09 05:57:58;;;;;;;;;4.00;3.50;;;;;26.66;41.68;102208.00;5082671;28;45206;-71
2021/07/09 06:00:23;;;;;;;;;4.25;4.25;;;;;26.69;41.46;102215.66;5081427;28;45311;-71
2021/07/09 06:02:49;;;;;;;;;3.50;3.00;;;;;26.72;41.69;102220.63;5083073;28;45176;-72
2021/07/09 06:05:15;;;;;;;;;4.25;4.25;;;;;26.61;42.01;102206.69;5082527;28;46241;-72
2021/07/09 06:07:40;;;;;;;;;4.00;4.00;;;;;26.68;42.17;102220.16;5082477;28;45784;-72
2021/07/09 06:10:06;;;;;;;;;3.50;3.50;;;;;26.38;41.86;102178.16;5081359;28;45341;-72
2021/07/09 06:12:32;;;;;;;;;3.50;3.50;;;;;26.39;41.92;102178.94;5082735;28;45323;-72
2021/07/09 06:14:58;;;;;;;;;5.25;5.25;;;;;26.55;41.93;102203.91;5091365;27;46790;-78
2021/07/09 06:17:23;;;;;;;;;5.50;4.00;;;;;26.32;42.08;102164.66;5062159;28;45486;-82
2021/07/09 06:19:48;;;;;;;;;3.75;3.75;;;;;26.38;41.84;102178.16;5061391;28;45410;-80
2021/07/09 06:22:14;;;;;;;;;4.25;4.25;;;;;26.74;41.87;102234.63;5061645;28;45326;-75
2021/07/09 06:24:40;;;;;;;;;6.25;5.00;;;;;26.65;42.02;102227.69;5061436;28;45350;-77
2021/07/09 06:27:06;;;;;;;;;3.25;3.00;;;;;26.73;41.87;102238.28;5061912;28;45896;-78
2021/07/09 06:29:32;;;;;;;;;3.00;3.00;;;;;26.62;42.59;102215.53;5064713;28;45379;-75
2021/07/09 06:31:58;;;;;;;;;4.00;4.00;;;;;26.69;42.04;102229.81;5060857;28;45413;-78
2021/07/09 06:34:24;;;;;;;;;3.75;3.75;;;;;26.77;41.82;102236.09;5059848;28;47243;-83
2021/07/09 06:36:49;;;;;;;;;3.75;3.75;;;;;26.68;41.92;102213.97;5067180;28;45262;-76
2021/07/09 06:39:14;;;;;;;;;5.00;5.00;;;;;26.80;41.82;102233.91;5082498;27;45301;-72
2021/07/09 06:41:40;;;;;;;;;4.75;4.00;;;;;26.78;42.17;102227.09;5080957;28;45165;-72
2021/07/09 06:44:05;;;;;;;;;4.00;4.00;;;;;26.76;42.31;102221.91;5077192;28;47176;-72
2021/07/09 06:46:31;;;;;;;;;4.00;4.00;;;;;26.69;42.20;102205.81;5060476;28;45336;-73
2021/07/09 06:48:56;;;;;;;;;4.00;4.00;;;;;26.46;41.98;102181.78;5061149;28;45668;-72
2021/07/09 06:51:22;;;;;;;;;3.75;3.75;;;;;26.71;42.24;102224.31;5061539;28;45668;-73
2021/07/09 06:53:47;;;;;;;;;3.00;3.00;;;;;26.70;42.51;102218.13;5061770;28;45421;-71
2021/07/09 06:56:14;;;;;;;;;5.00;5.00;;;;;26.66;41.87;102222.16;5060672;28;45251;-70
2021/07/09 06:58:39;;;;;;;;;4.50;3.50;;;;;26.63;42.42;102220.69;5061692;28;45328;-70
2021/07/09 07:01:05;;;;;;;;;4.00;4.00;;;;;26.65;42.16;102217.03;5061447;28;45228;-71
2021/07/09 07:03:30;;;;;;;;;3.50;3.25;;;;;26.79;42.16;102237.59;5061747;28;46212;-70
2021/07/09 07:05:56;;;;;;;;;3.00;3.00;;;;;26.77;42.17;102233.44;5060873;28;45683;-70
2021/07/09 07:08:25;;;;;;;;;3.25;3.25;;;;;26.82;42.13;102245.25;5061546;28;45489;-70
2021/07/09 07:10:52;;;;;;;;;3.50;3.50;;;;;26.80;42.10;102249.09;5061777;28;45272;-70
2021/07/09 07:13:22;;;;;;;;;5.00;4.50;;;;;26.72;41.83;102234.81;5061025;28;45362;-70
2021/07/09 07:15:48;;;;;;;;;4.50;4.00;;;;;26.70;41.78;102228.00;5069080;28;45301;-70
2021/07/09 07:18:13;;;;;;;;;4.00;4.00;;;;;26.79;42.03;102245.59;5080275;28;45303;-70
2021/07/09 07:20:42;;;;;;;;;3.25;3.25;;;;;26.73;41.97;102227.63;5081795;28;45383;-72
2021/07/09 07:23:10;;;;;;;;;4.00;3.00;;;;;26.85;41.90;102252.06;5079481;28;45398;-71
2021/07/09 07:25:36;;;;;;;;;4.25;4.25;;;;;26.81;41.99;102243.56;5061321;28;45381;-72
2021/07/09 07:28:01;;;;;;;;;2.50;2.50;;;;;26.71;42.10;102225.13;5060558;28;45216;-72
2021/07/09 07:30:27;;;;;;;;;4.25;4.25;;;;;26.89;41.79;102252.53;5063628;28;45489;-73
2021/07/09 07:32:53;;;;;;;;;3.00;3.00;;;;;26.89;41.86;102260.53;5060837;28;45182;-72
2021/07/09 07:35:19;;;;;;;;;2.00;2.00;;;;;26.70;42.18;102236.00;5061153;28;45240;-72
2021/07/09 07:37:45;;;;;;;;;3.25;3.00;;;;;26.86;41.90;102253.72;5071561;28;45270;-73
2021/07/09 07:40:11;;;;;;;;;4.25;2.75;;;;;26.69;41.80;102226.31;5061152;28;45423;-72
2021/07/09 07:42:36;;;;;;;;;4.00;4.00;;;;;26.69;41.71;102215.66;5060967;28;45557;-75
2021/07/09 07:45:03;;;;;;;;;3.00;3.00;;;;;26.92;42.24;102260.19;5061033;28;45421;-75
2021/07/09 07:47:29;;;;;;;;;6.00;6.00;;;;;26.77;41.56;102236.09;5061034;28;45315;-72
2021/07/09 07:49:55;;;;;;;;;8.00;7.00;;;;;26.66;41.11;102214.16;5061990;28;45504;-72
2021/07/09 07:52:20;;;;;;;;;6.25;5.75;;;;;26.68;40.91;102227.31;5064381;28;45574;-72
2021/07/09 07:54:45;;;;;;;;;6.00;6.00;;;;;26.69;40.89;102229.00;5059091;28;45416;-72
2021/07/09 07:57:11;;;;;;;;;7.00;7.00;;;;;26.53;40.82;102209.41;5060588;28;45450;-72
2021/07/09 07:59:36;;;;;;;;;8.50;8.50;;;;;26.64;40.39;102229.53;5060500;28;45414;-71
2021/07/09 08:02:02;;;;;;;;;8.75;8.75;;;;;26.73;39.87;102249.81;5071718;28;46308;-72
2021/07/09 08:04:27;;;;;;;;;7.50;7.50;;;;;26.54;39.78;102215.59;5073575;28;45247;-71
2021/07/09 08:06:52;;;;;;;;;8.50;7.50;;;;;26.57;39.90;102217.91;5073214;28;45366;-71
2021/07/09 08:09:18;;;;;;;;;9.75;8.25;;;;;26.61;39.90;102236.06;5079149;28;45544;-71
2021/07/09 08:11:43;;;;;;;;;12.00;9.50;;;;;26.50;39.58;102223.94;5060190;28;45361;-71
2021/07/09 08:14:09;;;;;;;;;9.75;9.75;;;;;26.60;39.31;102238.88;5060428;28;45338;-71
2021/07/09 08:16:34;;;;;;;;;10.75;9.50;;;;;26.51;38.77;102230.13;5060345;28;45696;-72
2021/07/09 08:19:00;;;;;;;;;9.75;8.50;;;;;26.52;39.24;102237.94;5060457;28;45246;-72
2021/07/09 08:21:26;;;;;;;;;8.00;8.00;;;;;26.60;39.34;102249.56;5059828;28;45289;-71
2021/07/09 08:23:51;;;;;;;;;8.50;8.00;;;;;26.66;39.39;102258.72;5060384;28;45345;-71
2021/07/09 08:26:17;;;;;;;;;13.25;10.00;;;;;26.63;39.44;102257.22;5060469;28;45288;-72
2021/07/09 08:28:42;;;;;;;;;7.50;6.00;;;;;26.45;39.19;102228.16;5060187;28;45442;-71
2021/07/09 08:31:08;;;;;;;;;8.50;7.25;;;;;26.38;39.21;102212.00;5064032;28;46383;-71
2021/07/09 08:33:33;;;;;;;;;7.00;7.00;;;;;26.55;39.14;102243.94;5060328;28;45260;-71
2021/07/09 08:35:59;;;;;;;;;13.50;7.75;;;;;26.37;39.19;102216.50;5059624;28;45535;-71
2021/07/09 08:38:24;;;;;;;;;8.00;8.00;;;;;26.28;39.01;102209.56;5071723;28;45327;-71
2021/07/09 08:40:49;;;;;;;;;8.50;8.00;;;;;26.47;39.31;102228.81;5075547;28;45386;-71
2021/07/09 08:43:15;;;;;;;;;10.50;7.00;;;;;26.47;38.75;102234.13;5066320;28;45252;-71
2021/07/09 08:45:40;;;;;;;;;10.50;9.50;;;;;26.32;38.96;102221.53;5080423;28;45258;-71
2021/07/09 08:48:08;;;;;;;;;8.75;8.75;;;;;26.37;39.18;102223.66;5080285;28;45509;-71
2021/07/09 08:50:34;;;;;;;;;9.00;7.75;;;;;26.37;39.25;102221.00;5080205;28;46271;-71
2021/07/09 08:52:59;;;;;;;;;8.75;8.75;;;;;26.31;38.97;102203.03;5079909;28;45226;-71
2021/07/09 08:55:25;;;;;;;;;8.00;8.00;;;;;26.15;39.03;102167.47;5080387;28;45244;-71
2021/07/09 08:57:50;;;;;;;;;10.00;6.75;;;;;26.33;39.18;102185.84;5079607;28;45227;-71
2021/07/09 09:00:21;;;;;;;;;8.75;8.50;;;;;26.59;38.78;102205.22;5079990;28;45592;-71
2021/07/09 09:02:48;;;;;;;;;7.75;6.75;;;;;26.48;38.72;102179.78;5079997;28;45227;-71
2021/07/09 09:05:24;;;;;;;;;9.25;9.00;;;;;26.49;39.25;102171.56;5080004;28;45251;-71
2021/07/09 09:08:00;;;;;;;;;7.50;7.00;;;;;26.62;38.92;102192.31;5088762;27;45327;-71
2021/07/09 09:10:33;;;;;;;;;6.75;6.00;;;;;26.81;39.01;102211.53;5059444;28;45492;-71
2021/07/09 09:13:09;;;;;;;;;8.00;8.00;;;;;26.85;38.87;102207.47;5062638;28;45373;-71
2021/07/09 09:15:36;;;;;;;;;7.50;7.50;;;;;26.81;38.61;102195.50;5062886;27;45216;-71
2021/07/09 09:18:17;;;;;;;;;7.00;5.75;;;;;26.74;38.58;102175.91;5062949;28;45384;-71
2021/07/09 09:20:42;;;;;;;;;7.00;5.50;;;;;26.74;38.50;102168.72;5069830;28;45275;-71
2021/07/09 09:23:12;;;;;;;;;6.25;5.50;;;;;26.81;38.61;102170.66;5083250;28;45313;-71
2021/07/09 09:25:38;;;;;;;;;6.00;6.00;;;;;27.00;38.39;102193.34;5083483;28;45294;-71
2021/07/09 09:28:10;;;;;;;;;5.25;5.25;;;;;26.93;37.94;102179.06;5083048;28;45389;-71
2021/07/09 09:30:37;;;;;;;;;6.00;6.00;;;;;26.92;38.15;102174.72;5074992;28;45423;-78
2021/07/09 09:33:06;;;;;;;;;5.00;5.00;;;;;27.08;38.05;102203.13;5062921;28;45312;-70
2021/07/09 09:35:42;;;;;;;;;9.00;5.75;;;;;27.04;38.36;102183.94;5062811;28;45273;-70
2021/07/09 09:38:13;;;;;;;;;8.00;5.00;;;;;27.15;38.37;102198.75;5075675;28;46412;-70
2021/07/09 09:40:43;;;;;;;;;6.00;6.00;;;;;27.07;38.09;102185.44;5062602;28;45570;-71
2021/07/09 09:43:11;;;;;;;;;11.00;9.50;;;;;27.12;37.82;102188.38;5067440;28;45269;-71
2021/07/09 09:45:38;;;;;;;;;7.25;7.25;;;;;27.27;38.02;102199.09;5068426;28;45323;-71
2021/07/09 09:48:06;;;;;;;;;5.75;5.75;;;;;27.18;38.08;102186.84;5069373;28;45432;-71
2021/07/09 09:50:40;;;;;;;;;7.00;7.00;;;;;27.26;37.90;102193.97;5060938;28;46213;-71
2021/07/09 09:53:06;;;;;;;;;6.00;6.00;;;;;27.20;38.21;102184.81;5065424;28;45581;-71
2021/07/09 09:55:33;;;;;;;;;7.50;7.50;;;;;27.22;38.13;102182.00;5064682;28;45301;-71
2021/07/09 09:58:15;;;;;;;;;6.25;6.00;;;;;27.26;38.06;102193.97;5062033;28;45539;-71
2021/07/09 10:00:51;;;;;;;;;10.50;9.50;;;;;27.24;37.93;102194.16;5061952;28;45352;-71
2021/07/09 10:03:19;;;;;;;;;7.25;7.25;;;;;27.15;37.77;102176.53;5062362;28;45232;-71
2021/07/09 10:05:47;;;;;;;;;5.50;5.50;;;;;27.13;37.95;102171.38;5061967;28;45269;-71
2021/07/09 10:08:15;;;;;;;;;9.50;6.75;;;;;27.07;37.66;102162.22;5062048;28;45397;-71
2021/07/09 10:10:44;;;;;;;;;11.00;7.00;;;;;27.17;38.14;102182.53;5061838;28;45307;-70
2021/07/09 10:13:16;;;;;;;;;9.25;6.25;;;;;27.03;37.76;102149.44;5061652;28;45337;-70
2021/07/09 10:15:48;;;;;;;;;7.00;6.75;;;;;27.08;38.13;102152.38;5060210;28;45323;-71
2021/07/09 10:18:18;;;;;;;;;8.50;8.00;;;;;27.16;38.24;102168.34;5061445;28;45405;-72
2021/07/09 10:20:45;;;;;;;;;6.25;6.25;;;;;27.11;37.92;102146.69;5065357;27;46499;-71
2021/07/09 10:23:21;;;;;;;;;9.25;8.25;;;;;27.20;37.85;102171.47;5062717;27;45398;-72
2021/07/09 10:25:51;;;;;;;;;6.50;6.00;;;;;27.05;38.20;102132.22;5063041;27;45542;-71
2021/07/09 10:28:21;;;;;;;;;7.50;7.00;;;;;27.16;38.43;102149.66;5073238;27;45323;-71
2021/07/09 10:30:46;;;;;;;;;7.00;5.75;;;;;27.27;38.20;102177.72;5065281;27;45509;-71
2021/07/09 10:33:32;;;;;;;;;9.25;6.25;;;;;27.33;38.32;102167.31;5063643;27;45378;-70
2021/07/09 10:36:05;;;;;;;;;5.75;5.50;;;;;27.22;38.05;102158.75;5067678;27;45349;-71
2021/07/09 10:38:36;;;;;;;;;5.25;5.25;;;;;27.22;38.49;102157.94;5075836;27;45386;-71
2021/07/09 10:41:18;;;;;;;;;10.00;9.25;;;;;27.00;38.16;102121.25;5072706;27;46940;-71
2021/07/09 10:44:18;;;;;;;;;5.25;5.25;;;;;27.33;38.33;102172.66;5069905;27;45512;-71
2021/07/09 10:46:44;;;;;;;;;6.75;5.25;;;;;27.26;38.29;102165.41;5070893;27;46270;-72
2021/07/09 10:49:10;;;;;;;;;6.25;5.00;;;;;27.20;38.14;102147.44;5063784;27;45411;-70
2021/07/09 10:51:52;;;;;;;;;6.00;5.00;;;;;27.15;38.12;102139.97;5066749;27;47006;-70
2021/07/09 10:54:29;;;;;;;;;7.75;5.75;;;;;27.22;38.80;102150.75;5067427;27;45420;-71
2021/07/09 10:57:21;;;;;;;;;5.25;5.25;;;;;27.24;38.29;102154.06;5077930;27;45342;-70
2021/07/09 11:00:21;;;;;;;;;7.00;7.00;;;;;27.31;38.61;102162.19;5068044;28;45315;-72
2021/07/09 11:03:05;;;;;;;;;7.50;7.50;;;;;27.22;38.52;102133.91;5062850;28;45538;-71
2021/07/09 11:05:42;;;;;;;;;6.25;6.25;;;;;27.32;38.27;102163.84;5061015;28;45310;-71
2021/07/09 11:08:32;;;;;;;;;7.50;6.75;;;;;27.32;38.41;102153.16;5060573;28;45404;-71
2021/07/09 11:11:09;;;;;;;;;5.00;5.00;;;;;27.18;38.30;102122.75;5069120;28;45512;-71
2021/07/09 11:13:46;;;;;;;;;5.00;5.00;;;;;27.32;38.17;102146.97;5081021;28;46143;-71
2021/07/09 11:16:20;;;;;;;;;7.00;6.00;;;;;27.31;38.04;102137.28;5080040;28;45462;-71
2021/07/09 11:18:50;;;;;;;;;6.00;6.00;;;;;27.12;38.20;102107.41;5081666;28;45164;-71
2021/07/09 11:21:17;;;;;;;;;4.50;3.75;;;;;27.14;38.26;102116.94;5081055;28;45280;-71
2021/07/09 11:23:56;;;;;;;;;5.50;5.50;;;;;27.03;38.43;102099.50;5080856;28;46328;-71
2021/07/09 11:26:21;;;;;;;;;6.00;6.00;;;;;27.18;38.30;102126.25;5076124;28;45449;-71